sensor_id;sensor_type;location;lat;lon;timestamp;pressure;altitude;pressure_sealevel;temperature;humidity
60240;BME280;46102;39.012;-7.064;2023-04-01T00:00:54;99370.84;;;13.50;61.77
60240;BME280;46102;39.012;-7.064;2023-04-01T00:02:56;99369.56;;;13.47;61.92
60240;BME280;46102;39.012;-7.064;2023-04-01T00:04:57;99360.47;;;13.47;61.81
60240;BME280;46102;39.012;-7.064;2023-04-01T00:06:58;99357.03;;;13.41;62.20
60240;BME280;46102;39.012;-7.064;2023-04-01T00:08:58;99363.69;;;13.40;62.62
60240;BME280;46102;39.012;-7.064;2023-04-01T00:10:59;99360.47;;;13.47;63.14
60240;BME280;46102;39.012;-7.064;2023-04-01T00:13:00;99367.69;;;13.34;63.02
60240;BME280;46102;39.012;-7.064;2023-04-01T00:15:02;99365.34;;;13.27;63.40
60240;BME280;46102;39.012;-7.064;2023-04-01T00:17:03;99371.50;;;13.24;63.46
60240;BME280;46102;39.012;-7.064;2023-04-01T00:19:04;99362.75;;;13.22;64.09
60240;BME280;46102;39.012;-7.064;2023-04-01T00:21:05;99363.03;;;13.21;64.21
60240;BME280;46102;39.012;-7.064;2023-04-01T00:23:06;99356.03;;;13.15;64.20
60240;BME280;46102;39.012;-7.064;2023-04-01T00:25:07;99362.53;;;13.19;64.57
60240;BME280;46102;39.012;-7.064;2023-04-01T00:27:07;99368.00;;;13.10;64.74
60240;BME280;46102;39.012;-7.064;2023-04-01T00:29:08;99364.44;;;13.09;64.74
60240;BME280;46102;39.012;-7.064;2023-04-01T00:31:13;99377.19;;;13.05;64.85
60240;BME280;46102;39.012;-7.064;2023-04-01T00:33:15;99373.63;;;13.05;65.38
60240;BME280;46102;39.012;-7.064;2023-04-01T00:35:17;99370.38;;;13.03;65.46
60240;BME280;46102;39.012;-7.064;2023-04-01T00:37:18;99374.44;;;13.05;65.66
60240;BME280;46102;39.012;-7.064;2023-04-01T00:39:20;99364.88;;;13.03;66.29
60240;BME280;46102;39.012;-7.064;2023-04-01T00:41:21;99369.06;;;13.00;66.32
60240;BME280;46102;39.012;-7.064;2023-04-01T00:43:22;99366.47;;;12.95;66.77
60240;BME280;46102;39.012;-7.064;2023-04-01T00:45:36;99365.16;;;12.93;67.33
60240;BME280;46102;39.012;-7.064;2023-04-01T00:47:37;99372.78;;;12.96;67.71
60240;BME280;46102;39.012;-7.064;2023-04-01T00:49:40;99372.50;;;12.83;68.11
60240;BME280;46102;39.012;-7.064;2023-04-01T00:51:45;99369.88;;;12.78;67.93
60240;BME280;46102;39.012;-7.064;2023-04-01T00:53:50;99364.56;;;12.82;68.09
60240;BME280;46102;39.012;-7.064;2023-04-01T00:56:12;99357.56;;;12.76;68.30
60240;BME280;46102;39.012;-7.064;2023-04-01T00:58:17;99357.69;;;12.70;68.49
60240;BME280;46102;39.012;-7.064;2023-04-01T01:00:20;99360.75;;;12.69;68.57
60240;BME280;46102;39.012;-7.064;2023-04-01T01:02:22;99358.56;;;12.80;69.12
60240;BME280;46102;39.012;-7.064;2023-04-01T01:04:30;99356.38;;;12.68;69.42
60240;BME280;46102;39.012;-7.064;2023-04-01T01:08:59;99337.16;;;12.54;69.67
60240;BME280;46102;39.012;-7.064;2023-04-01T01:11:08;99339.72;;;12.50;70.01
60240;BME280;46102;39.012;-7.064;2023-04-01T01:13:20;99335.94;;;12.46;70.29
60240;BME280;46102;39.012;-7.064;2023-04-01T01:15:37;99331.25;;;12.47;70.24
60240;BME280;46102;39.012;-7.064;2023-04-01T01:22:11;99327.88;;;12.50;70.23
60240;BME280;46102;39.012;-7.064;2023-04-01T01:24:48;99330.94;;;12.48;70.33
60240;BME280;46102;39.012;-7.064;2023-04-01T01:31:37;99323.13;;;12.42;70.81
60240;BME280;46102;39.012;-7.064;2023-04-01T01:34:15;99326.16;;;12.40;71.04
60240;BME280;46102;39.012;-7.064;2023-04-01T01:36:19;99326.50;;;12.39;71.12
60240;BME280;46102;39.012;-7.064;2023-04-01T01:38:24;99333.09;;;12.38;71.37
60240;BME280;46102;39.012;-7.064;2023-04-01T01:40:34;99334.56;;;12.35;71.36
60240;BME280;46102;39.012;-7.064;2023-04-01T01:42:40;99324.16;;;12.32;71.64
60240;BME280;46102;39.012;-7.064;2023-04-01T01:44:45;99323.38;;;12.32;72.14
60240;BME280;46102;39.012;-7.064;2023-04-01T01:46:48;99325.91;;;12.28;72.14
60240;BME280;46102;39.012;-7.064;2023-04-01T01:48:51;99323.59;;;12.21;72.71
60240;BME280;46102;39.012;-7.064;2023-04-01T01:50:53;99326.63;;;12.20;72.95
60240;BME280;46102;39.012;-7.064;2023-04-01T01:53:03;99322.78;;;12.21;72.93
60240;BME280;46102;39.012;-7.064;2023-04-01T01:55:34;99332.94;;;12.20;72.70
60240;BME280;46102;39.012;-7.064;2023-04-01T01:57:37;99335.09;;;12.23;72.73
60240;BME280;46102;39.012;-7.064;2023-04-01T01:59:48;99342.84;;;12.21;72.95
60240;BME280;46102;39.012;-7.064;2023-04-01T02:01:57;99332.13;;;12.20;73.12
60240;BME280;46102;39.012;-7.064;2023-04-01T02:03:59;99315.34;;;12.21;73.01
60240;BME280;46102;39.012;-7.064;2023-04-01T02:06:04;99307.38;;;12.20;72.91
60240;BME280;46102;39.012;-7.064;2023-04-01T02:08:11;99297.00;;;12.17;73.25
60240;BME280;46102;39.012;-7.064;2023-04-01T02:10:14;99302.81;;;12.15;73.52
60240;BME280;46102;39.012;-7.064;2023-04-01T02:12:16;99296.00;;;12.13;73.87
60240;BME280;46102;39.012;-7.064;2023-04-01T02:14:23;99288.53;;;12.13;74.05
60240;BME280;46102;39.012;-7.064;2023-04-01T02:18:31;99280.41;;;12.08;74.38
60240;BME280;46102;39.012;-7.064;2023-04-01T02:20:36;99290.91;;;12.06;74.67
60240;BME280;46102;39.012;-7.064;2023-04-01T02:22:42;99299.47;;;12.04;74.78
60240;BME280;46102;39.012;-7.064;2023-04-01T02:24:46;99301.75;;;12.02;74.86
60240;BME280;46102;39.012;-7.064;2023-04-01T02:26:50;99309.16;;;12.02;75.34
60240;BME280;46102;39.012;-7.064;2023-04-01T02:28:53;99311.38;;;12.00;75.11
60240;BME280;46102;39.012;-7.064;2023-04-01T02:30:55;99308.97;;;11.98;75.22
60240;BME280;46102;39.012;-7.064;2023-04-01T02:32:58;99304.56;;;11.97;75.27
60240;BME280;46102;39.012;-7.064;2023-04-01T02:34:59;99311.50;;;11.95;75.37
60240;BME280;46102;39.012;-7.064;2023-04-01T02:37:04;99310.50;;;11.91;75.69
60240;BME280;46102;39.012;-7.064;2023-04-01T02:39:05;99321.88;;;11.84;75.78
60240;BME280;46102;39.012;-7.064;2023-04-01T02:41:06;99319.44;;;11.82;75.72
60240;BME280;46102;39.012;-7.064;2023-04-01T02:43:07;99325.25;;;11.81;76.19
60240;BME280;46102;39.012;-7.064;2023-04-01T02:45:08;99329.22;;;11.75;76.41
60240;BME280;46102;39.012;-7.064;2023-04-01T02:47:10;99322.00;;;11.65;76.48
60240;BME280;46102;39.012;-7.064;2023-04-01T02:49:11;99324.00;;;11.59;76.77
60240;BME280;46102;39.012;-7.064;2023-04-01T02:51:13;99326.28;;;11.57;77.09
60240;BME280;46102;39.012;-7.064;2023-04-01T02:53:15;99326.34;;;11.52;77.52
60240;BME280;46102;39.012;-7.064;2023-04-01T02:55:16;99328.91;;;11.49;77.47
60240;BME280;46102;39.012;-7.064;2023-04-01T02:57:18;99328.41;;;11.46;77.67
60240;BME280;46102;39.012;-7.064;2023-04-01T02:59:19;99325.25;;;11.39;77.82
60240;BME280;46102;39.012;-7.064;2023-04-01T03:01:20;99323.91;;;11.37;77.93
60240;BME280;46102;39.012;-7.064;2023-04-01T03:03:22;99320.16;;;11.33;78.49
60240;BME280;46102;39.012;-7.064;2023-04-01T03:05:23;99324.81;;;11.32;78.47
60240;BME280;46102;39.012;-7.064;2023-04-01T03:07:24;99312.72;;;11.33;78.90
60240;BME280;46102;39.012;-7.064;2023-04-01T03:09:26;99305.59;;;11.32;79.00
60240;BME280;46102;39.012;-7.064;2023-04-01T03:11:27;99307.94;;;11.39;79.26
60240;BME280;46102;39.012;-7.064;2023-04-01T03:13:28;99296.25;;;11.33;79.52
60240;BME280;46102;39.012;-7.064;2023-04-01T03:15:29;99303.97;;;11.31;79.81
60240;BME280;46102;39.012;-7.064;2023-04-01T03:17:29;99301.91;;;11.23;79.74
60240;BME280;46102;39.012;-7.064;2023-04-01T03:19:30;99303.94;;;11.17;79.93
60240;BME280;46102;39.012;-7.064;2023-04-01T03:21:32;99306.69;;;11.17;79.80
60240;BME280;46102;39.012;-7.064;2023-04-01T03:23:34;99307.00;;;11.16;79.97
60240;BME280;46102;39.012;-7.064;2023-04-01T03:25:35;99296.81;;;11.16;79.59
60240;BME280;46102;39.012;-7.064;2023-04-01T03:27:37;99295.19;;;11.15;79.44
60240;BME280;46102;39.012;-7.064;2023-04-01T03:29:37;99292.97;;;11.17;79.22
60240;BME280;46102;39.012;-7.064;2023-04-01T03:31:39;99289.59;;;11.20;79.16
60240;BME280;46102;39.012;-7.064;2023-04-01T03:33:40;99293.66;;;11.23;78.84
60240;BME280;46102;39.012;-7.064;2023-04-01T03:35:40;99290.13;;;11.22;78.68
60240;BME280;46102;39.012;-7.064;2023-04-01T03:37:41;99290.13;;;11.22;78.71
60240;BME280;46102;39.012;-7.064;2023-04-01T03:39:42;99294.28;;;11.20;78.83
60240;BME280;46102;39.012;-7.064;2023-04-01T03:41:43;99280.56;;;11.20;78.62
60240;BME280;46102;39.012;-7.064;2023-04-01T03:43:44;99281.88;;;11.22;78.66
60240;BME280;46102;39.012;-7.064;2023-04-01T03:45:50;99278.84;;;11.24;78.46
60240;BME280;46102;39.012;-7.064;2023-04-01T03:47:51;99277.13;;;11.28;78.33
60240;BME280;46102;39.012;-7.064;2023-04-01T03:49:52;99271.28;;;11.30;78.32
60240;BME280;46102;39.012;-7.064;2023-04-01T03:51:53;99274.56;;;11.32;78.38
60240;BME280;46102;39.012;-7.064;2023-04-01T03:53:54;99278.44;;;11.31;78.81
60240;BME280;46102;39.012;-7.064;2023-04-01T03:55:55;99273.63;;;11.22;79.14
60240;BME280;46102;39.012;-7.064;2023-04-01T03:57:57;99267.94;;;11.19;79.29
60240;BME280;46102;39.012;-7.064;2023-04-01T03:59:57;99272.03;;;11.21;79.31
60240;BME280;46102;39.012;-7.064;2023-04-01T04:01:58;99268.66;;;11.24;79.12
60240;BME280;46102;39.012;-7.064;2023-04-01T04:03:59;99271.91;;;11.27;79.36
60240;BME280;46102;39.012;-7.064;2023-04-01T04:06:01;99272.84;;;11.22;79.59
60240;BME280;46102;39.012;-7.064;2023-04-01T04:08:02;99276.91;;;11.24;79.66
60240;BME280;46102;39.012;-7.064;2023-04-01T04:10:04;99273.34;;;11.24;79.58
60240;BME280;46102;39.012;-7.064;2023-04-01T04:12:05;99267.75;;;11.15;79.99
60240;BME280;46102;39.012;-7.064;2023-04-01T04:14:07;99272.63;;;11.18;80.11
60240;BME280;46102;39.012;-7.064;2023-04-01T04:16:08;99277.81;;;11.20;80.37
60240;BME280;46102;39.012;-7.064;2023-04-01T04:18:12;99274.31;;;11.14;80.60
60240;BME280;46102;39.012;-7.064;2023-04-01T04:20:14;99272.72;;;11.13;80.80
60240;BME280;46102;39.012;-7.064;2023-04-01T04:22:15;99277.06;;;11.14;81.29
60240;BME280;46102;39.012;-7.064;2023-04-01T04:24:16;99276.88;;;11.11;81.63
60240;BME280;46102;39.012;-7.064;2023-04-01T04:26:35;99286.22;;;11.10;81.71
60240;BME280;46102;39.012;-7.064;2023-04-01T04:28:36;99301.00;;;11.14;81.90
60240;BME280;46102;39.012;-7.064;2023-04-01T04:30:37;99288.28;;;11.18;81.94
60240;BME280;46102;39.012;-7.064;2023-04-01T04:32:38;99284.53;;;11.28;82.30
60240;BME280;46102;39.012;-7.064;2023-04-01T04:34:39;99290.22;;;11.17;82.83
60240;BME280;46102;39.012;-7.064;2023-04-01T04:36:40;99296.91;;;11.11;83.09
60240;BME280;46102;39.012;-7.064;2023-04-01T04:38:41;99301.28;;;11.12;83.23
60240;BME280;46102;39.012;-7.064;2023-04-01T04:40:42;99303.84;;;11.09;83.22
60240;BME280;46102;39.012;-7.064;2023-04-01T04:42:43;99306.88;;;11.07;83.60
60240;BME280;46102;39.012;-7.064;2023-04-01T04:44:49;99308.19;;;11.10;83.43
60240;BME280;46102;39.012;-7.064;2023-04-01T04:46:50;99304.34;;;11.11;83.29
60240;BME280;46102;39.012;-7.064;2023-04-01T04:48:51;99298.03;;;11.10;83.32
60240;BME280;46102;39.012;-7.064;2023-04-01T04:50:52;99302.69;;;11.10;83.35
60240;BME280;46102;39.012;-7.064;2023-04-01T04:52:56;99299.94;;;11.10;83.20
60240;BME280;46102;39.012;-7.064;2023-04-01T04:54:57;99288.69;;;11.11;83.21
60240;BME280;46102;39.012;-7.064;2023-04-01T04:56:58;99281.06;;;11.08;83.01
60240;BME280;46102;39.012;-7.064;2023-04-01T04:59:01;99288.91;;;11.15;82.70
60240;BME280;46102;39.012;-7.064;2023-04-01T05:01:15;99308.13;;;11.15;82.52
60240;BME280;46102;39.012;-7.064;2023-04-01T05:03:17;99301.00;;;11.14;82.40
60240;BME280;46102;39.012;-7.064;2023-04-01T05:05:18;99302.00;;;11.18;82.74
60240;BME280;46102;39.012;-7.064;2023-04-01T05:07:20;99303.84;;;11.09;83.04
60240;BME280;46102;39.012;-7.064;2023-04-01T05:09:21;99310.53;;;11.02;83.35
60240;BME280;46102;39.012;-7.064;2023-04-01T05:11:22;99300.34;;;11.03;83.41
60240;BME280;46102;39.012;-7.064;2023-04-01T05:13:25;99304.63;;;10.95;83.77
60240;BME280;46102;39.012;-7.064;2023-04-01T05:15:26;99299.13;;;10.95;84.05
60240;BME280;46102;39.012;-7.064;2023-04-01T05:17:27;99305.41;;;10.96;84.16
60240;BME280;46102;39.012;-7.064;2023-04-01T05:19:28;99299.41;;;10.94;83.98
60240;BME280;46102;39.012;-7.064;2023-04-01T05:21:29;99300.97;;;11.00;83.88
60240;BME280;46102;39.012;-7.064;2023-04-01T05:23:31;99304.22;;;11.02;83.60
60240;BME280;46102;39.012;-7.064;2023-04-01T05:25:32;99305.03;;;11.02;84.06
60240;BME280;46102;39.012;-7.064;2023-04-01T05:27:33;99300.66;;;11.01;84.18
60240;BME280;46102;39.012;-7.064;2023-04-01T05:29:35;99308.16;;;10.96;84.41
60240;BME280;46102;39.012;-7.064;2023-04-01T05:31:40;99295.19;;;11.01;84.36
60240;BME280;46102;39.012;-7.064;2023-04-01T05:33:40;99298.50;;;10.98;84.64
60240;BME280;46102;39.012;-7.064;2023-04-01T05:35:41;99300.84;;;10.91;84.77
60240;BME280;46102;39.012;-7.064;2023-04-01T05:37:42;99300.94;;;10.86;85.07
60240;BME280;46102;39.012;-7.064;2023-04-01T05:39:43;99294.94;;;10.84;85.10
60240;BME280;46102;39.012;-7.064;2023-04-01T05:41:44;99301.53;;;10.83;85.33
60240;BME280;46102;39.012;-7.064;2023-04-01T05:43:45;99300.13;;;10.86;85.01
60240;BME280;46102;39.012;-7.064;2023-04-01T05:46:15;99310.19;;;10.90;84.82
60240;BME280;46102;39.012;-7.064;2023-04-01T05:48:24;99304.91;;;10.94;84.44
60240;BME280;46102;39.012;-7.064;2023-04-01T05:50:25;99305.75;;;10.94;84.29
60240;BME280;46102;39.012;-7.064;2023-04-01T05:52:26;99307.97;;;10.92;84.47
60240;BME280;46102;39.012;-7.064;2023-04-01T05:54:27;99306.72;;;10.84;84.76
60240;BME280;46102;39.012;-7.064;2023-04-01T05:56:28;99300.94;;;10.86;85.24
60240;BME280;46102;39.012;-7.064;2023-04-01T05:58:30;99295.63;;;10.90;85.63
60240;BME280;46102;39.012;-7.064;2023-04-01T06:00:33;99294.69;;;10.80;85.78
60240;BME280;46102;39.012;-7.064;2023-04-01T06:02:34;99301.31;;;10.79;86.21
60240;BME280;46102;39.012;-7.064;2023-04-01T06:04:38;99296.44;;;10.76;86.27
60240;BME280;46102;39.012;-7.064;2023-04-01T06:06:39;99300.81;;;10.77;86.31
60240;BME280;46102;39.012;-7.064;2023-04-01T06:08:43;99298.88;;;10.78;86.50
60240;BME280;46102;39.012;-7.064;2023-04-01T06:15:41;99302.25;;;10.89;86.20
60240;BME280;46102;39.012;-7.064;2023-04-01T06:22:39;99310.34;;;10.99;85.59
60240;BME280;46102;39.012;-7.064;2023-04-01T06:29:26;99327.50;;;11.04;86.07
60240;BME280;46102;39.012;-7.064;2023-04-01T06:54:40;99352.78;;;11.34;85.99
60240;BME280;46102;39.012;-7.064;2023-04-01T06:57:26;99360.44;;;11.37;86.39
60240;BME280;46102;39.012;-7.064;2023-04-01T06:59:32;99350.69;;;11.45;86.17
60240;BME280;46102;39.012;-7.064;2023-04-01T07:01:46;99341.63;;;11.58;85.55
60240;BME280;46102;39.012;-7.064;2023-04-01T07:03:58;99345.50;;;11.71;85.21
60240;BME280;46102;39.012;-7.064;2023-04-01T07:06:05;99348.97;;;11.77;85.10
60240;BME280;46102;39.012;-7.064;2023-04-01T07:08:17;99341.00;;;11.75;85.16
60240;BME280;46102;39.012;-7.064;2023-04-01T07:10:30;99339.00;;;11.81;85.34
60240;BME280;46102;39.012;-7.064;2023-04-01T07:12:55;99346.56;;;11.89;85.35
60240;BME280;46102;39.012;-7.064;2023-04-01T07:15:22;99344.50;;;11.95;85.25
60240;BME280;46102;39.012;-7.064;2023-04-01T07:17:31;99335.84;;;12.01;84.93
60240;BME280;46102;39.012;-7.064;2023-04-01T07:19:44;99335.72;;;12.06;84.63
60240;BME280;46102;39.012;-7.064;2023-04-01T07:21:52;99343.25;;;12.15;84.29
60240;BME280;46102;39.012;-7.064;2023-04-01T07:24:06;99343.94;;;12.20;84.08
60240;BME280;46102;39.012;-7.064;2023-04-01T07:26:19;99348.03;;;12.23;83.91
60240;BME280;46102;39.012;-7.064;2023-04-01T07:28:53;99355.44;;;12.36;83.48
60240;BME280;46102;39.012;-7.064;2023-04-01T07:33:19;99370.56;;;12.61;82.68
60240;BME280;46102;39.012;-7.064;2023-04-01T07:35:38;99359.13;;;12.68;82.70
60240;BME280;46102;39.012;-7.064;2023-04-01T07:38:06;99354.22;;;12.87;82.06
60240;BME280;46102;39.012;-7.064;2023-04-01T07:44:54;99350.19;;;13.70;77.27
60240;BME280;46102;39.012;-7.064;2023-04-01T07:47:05;99354.28;;;13.81;77.20
60240;BME280;46102;39.012;-7.064;2023-04-01T07:49:14;99354.00;;;14.00;76.72
60240;BME280;46102;39.012;-7.064;2023-04-01T07:56:25;99351.03;;;14.63;73.58
60240;BME280;46102;39.012;-7.064;2023-04-01T08:01:12;99353.31;;;14.87;71.87
60240;BME280;46102;39.012;-7.064;2023-04-01T08:03:48;99346.47;;;15.02;70.93
60240;BME280;46102;39.012;-7.064;2023-04-01T08:05:58;99342.56;;;15.11;70.44
60240;BME280;46102;39.012;-7.064;2023-04-01T08:08:28;99345.25;;;15.29;68.94
60240;BME280;46102;39.012;-7.064;2023-04-01T08:11:03;99350.00;;;15.28;69.17
60240;BME280;46102;39.012;-7.064;2023-04-01T08:13:30;99346.53;;;15.40;69.12
60240;BME280;46102;39.012;-7.064;2023-04-01T08:18:35;99343.91;;;15.52;68.53
60240;BME280;46102;39.012;-7.064;2023-04-01T08:20:50;99343.19;;;15.64;68.12
60240;BME280;46102;39.012;-7.064;2023-04-01T08:22:58;99340.44;;;15.73;68.16
60240;BME280;46102;39.012;-7.064;2023-04-01T08:25:13;99331.34;;;16.02;66.71
60240;BME280;46102;39.012;-7.064;2023-04-01T08:27:44;99328.84;;;16.09;66.23
60240;BME280;46102;39.012;-7.064;2023-04-01T08:29:51;99335.84;;;16.07;66.57
60240;BME280;46102;39.012;-7.064;2023-04-01T08:32:03;99339.44;;;16.07;66.55
60240;BME280;46102;39.012;-7.064;2023-04-01T08:34:15;99334.13;;;16.23;66.33
60240;BME280;46102;39.012;-7.064;2023-04-01T08:36:21;99337.31;;;16.55;65.43
60240;BME280;46102;39.012;-7.064;2023-04-01T08:38:38;99339.34;;;16.88;64.29
60240;BME280;46102;39.012;-7.064;2023-04-01T08:43:06;99328.50;;;17.28;61.25
60240;BME280;46102;39.012;-7.064;2023-04-01T08:52:34;99338.00;;;17.27;61.06
60240;BME280;46102;39.012;-7.064;2023-04-01T09:00:29;99349.75;;;17.82;59.62
60240;BME280;46102;39.012;-7.064;2023-04-01T09:11:56;99366.88;;;18.33;57.40
60240;BME280;46102;39.012;-7.064;2023-04-01T09:31:38;99364.06;;;19.58;49.92
60240;BME280;46102;39.012;-7.064;2023-04-01T09:36:44;99359.53;;;19.98;48.08
60240;BME280;46102;39.012;-7.064;2023-04-01T09:38:58;99361.31;;;19.90;48.06
60240;BME280;46102;39.012;-7.064;2023-04-01T09:46:18;99357.44;;;20.10;48.53
60240;BME280;46102;39.012;-7.064;2023-04-01T10:01:01;99340.72;;;19.47;47.38
60240;BME280;46102;39.012;-7.064;2023-04-01T10:20:25;99345.72;;;20.36;45.17
60240;BME280;46102;39.012;-7.064;2023-04-01T10:25:19;99327.16;;;20.44;46.18
60240;BME280;46102;39.012;-7.064;2023-04-01T10:40:21;99334.69;;;21.60;42.68
60240;BME280;46102;39.012;-7.064;2023-04-01T10:45:59;99315.44;;;21.78;42.63
60240;BME280;46102;39.012;-7.064;2023-04-01T10:53:21;99311.63;;;22.17;41.44
60240;BME280;46102;39.012;-7.064;2023-04-01T11:21:50;99297.50;;;23.75;38.40
60240;BME280;46102;39.012;-7.064;2023-04-01T11:24:17;99289.38;;;23.63;38.35
60240;BME280;46102;39.012;-7.064;2023-04-01T11:33:46;99302.44;;;23.89;40.22
60240;BME280;46102;39.012;-7.064;2023-04-01T11:38:34;99294.47;;;23.95;40.07
60240;BME280;46102;39.012;-7.064;2023-04-01T11:44:19;99278.31;;;23.33;41.82
60240;BME280;46102;39.012;-7.064;2023-04-01T11:46:42;99276.97;;;23.64;41.23
60240;BME280;46102;39.012;-7.064;2023-04-01T11:51:34;99265.66;;;23.98;40.15
60240;BME280;46102;39.012;-7.064;2023-04-01T12:00:49;99254.91;;;24.03;40.13
60240;BME280;46102;39.012;-7.064;2023-04-01T12:14:44;99244.94;;;25.33;37.94
60240;BME280;46102;39.012;-7.064;2023-04-01T12:16:52;99240.56;;;25.25;37.46
60240;BME280;46102;39.012;-7.064;2023-04-01T12:21:29;99244.09;;;24.93;38.51
60240;BME280;46102;39.012;-7.064;2023-04-01T12:33:28;99247.66;;;24.79;39.01
60240;BME280;46102;39.012;-7.064;2023-04-01T12:35:42;99246.47;;;24.91;38.80
60240;BME280;46102;39.012;-7.064;2023-04-01T12:40:20;99249.56;;;24.50;39.99
60240;BME280;46102;39.012;-7.064;2023-04-01T12:55:00;99222.81;;;26.14;37.40
60240;BME280;46102;39.012;-7.064;2023-04-01T12:59:50;99222.84;;;26.07;37.07
60240;BME280;46102;39.012;-7.064;2023-04-01T13:02:22;99226.84;;;26.09;37.46
60240;BME280;46102;39.012;-7.064;2023-04-01T13:17:08;99213.66;;;25.74;38.10
60240;BME280;46102;39.012;-7.064;2023-04-01T13:19:22;99198.81;;;25.88;37.78
60240;BME280;46102;39.012;-7.064;2023-04-01T13:28:23;99207.38;;;26.54;36.66
60240;BME280;46102;39.012;-7.064;2023-04-01T13:30:33;99208.81;;;26.03;37.74
60240;BME280;46102;39.012;-7.064;2023-04-01T13:32:47;99204.41;;;25.95;37.80
60240;BME280;46102;39.012;-7.064;2023-04-01T13:35:08;99202.34;;;26.13;37.28
60240;BME280;46102;39.012;-7.064;2023-04-01T13:39:46;99189.84;;;26.25;36.66
60240;BME280;46102;39.012;-7.064;2023-04-01T13:44:25;99190.59;;;26.44;36.91
60240;BME280;46102;39.012;-7.064;2023-04-01T13:55:23;99166.13;;;26.30;37.88
60240;BME280;46102;39.012;-7.064;2023-04-01T14:02:24;99175.97;;;25.50;38.34
60240;BME280;46102;39.012;-7.064;2023-04-01T14:04:49;99173.53;;;25.66;38.77
60240;BME280;46102;39.012;-7.064;2023-04-01T14:11:27;99167.56;;;25.21;39.01
60240;BME280;46102;39.012;-7.064;2023-04-01T14:16:04;99185.66;;;24.07;41.43
60240;BME280;46102;39.012;-7.064;2023-04-01T14:18:33;99182.75;;;23.82;42.24
60240;BME280;46102;39.012;-7.064;2023-04-01T14:20:59;99184.22;;;23.69;42.71
60240;BME280;46102;39.012;-7.064;2023-04-01T14:35:06;99161.00;;;23.13;45.19
60240;BME280;46102;39.012;-7.064;2023-04-01T14:42:20;99161.59;;;23.37;44.68
60240;BME280;46102;39.012;-7.064;2023-04-01T14:51:39;99136.63;;;24.64;42.30
60240;BME280;46102;39.012;-7.064;2023-04-01T14:53:57;99139.47;;;24.96;41.43
60240;BME280;46102;39.012;-7.064;2023-04-01T14:56:00;99132.25;;;25.17;41.21
60240;BME280;46102;39.012;-7.064;2023-04-01T14:58:17;99142.66;;;24.84;41.99
60240;BME280;46102;39.012;-7.064;2023-04-01T15:00:18;99156.19;;;24.46;41.84
60240;BME280;46102;39.012;-7.064;2023-04-01T15:09:20;99141.81;;;23.12;45.90
60240;BME280;46102;39.012;-7.064;2023-04-01T15:16:05;99151.38;;;23.07;46.41
60240;BME280;46102;39.012;-7.064;2023-04-01T15:18:13;99155.66;;;22.97;46.65
60240;BME280;46102;39.012;-7.064;2023-04-01T15:20:29;99139.88;;;22.78;47.20
60240;BME280;46102;39.012;-7.064;2023-04-01T15:27:32;99150.56;;;21.98;50.22
60240;BME280;46102;39.012;-7.064;2023-04-01T15:32:23;99147.75;;;21.98;50.71
60240;BME280;46102;39.012;-7.064;2023-04-01T15:41:14;99109.91;;;22.75;47.99
60240;BME280;46102;39.012;-7.064;2023-04-01T15:43:40;99122.34;;;22.40;48.99
60240;BME280;46102;39.012;-7.064;2023-04-01T15:52:30;99115.69;;;22.18;50.64
60240;BME280;46102;39.012;-7.064;2023-04-01T15:55:09;99112.69;;;22.34;50.37
60240;BME280;46102;39.012;-7.064;2023-04-01T15:57:37;99117.22;;;22.46;49.84
60240;BME280;46102;39.012;-7.064;2023-04-01T16:02:35;99099.66;;;22.49;49.91
60240;BME280;46102;39.012;-7.064;2023-04-01T16:09:51;99107.22;;;21.77;52.02
60240;BME280;46102;39.012;-7.064;2023-04-01T16:19:11;99119.06;;;20.68;65.61
60240;BME280;46102;39.012;-7.064;2023-04-01T16:21:37;99115.03;;;20.88;65.90
60240;BME280;46102;39.012;-7.064;2023-04-01T16:23:57;99106.84;;;20.99;65.10
60240;BME280;46102;39.012;-7.064;2023-04-01T16:26:13;99113.81;;;20.89;63.75
60240;BME280;46102;39.012;-7.064;2023-04-01T16:30:40;99097.91;;;20.67;63.13
60240;BME280;46102;39.012;-7.064;2023-04-01T16:32:50;99105.88;;;20.45;63.12
60240;BME280;46102;39.012;-7.064;2023-04-01T16:35:16;99101.13;;;20.26;63.76
60240;BME280;46102;39.012;-7.064;2023-04-01T16:37:32;99111.44;;;20.45;64.19
60240;BME280;46102;39.012;-7.064;2023-04-01T16:39:47;99110.31;;;20.69;62.74
60240;BME280;46102;39.012;-7.064;2023-04-01T16:44:25;99104.94;;;21.07;60.28
60240;BME280;46102;39.012;-7.064;2023-04-01T16:46:35;99101.84;;;21.12;59.82
60240;BME280;46102;39.012;-7.064;2023-04-01T16:51:13;99091.19;;;21.17;58.30
60240;BME280;46102;39.012;-7.064;2023-04-01T16:53:30;99087.38;;;21.29;58.47
60240;BME280;46102;39.012;-7.064;2023-04-01T16:55:52;99095.19;;;21.20;58.62
60240;BME280;46102;39.012;-7.064;2023-04-01T16:57:59;99094.59;;;21.07;58.65
60240;BME280;46102;39.012;-7.064;2023-04-01T17:00:26;99087.03;;;20.58;60.19
60240;BME280;46102;39.012;-7.064;2023-04-01T17:02:33;99086.25;;;20.38;61.43
60240;BME280;46102;39.012;-7.064;2023-04-01T17:06:49;99092.50;;;20.54;60.86
60240;BME280;46102;39.012;-7.064;2023-04-01T17:09:02;99092.34;;;20.67;60.87
60240;BME280;46102;39.012;-7.064;2023-04-01T17:11:28;99085.75;;;20.55;61.10
60240;BME280;46102;39.012;-7.064;2023-04-01T17:13:44;99082.84;;;20.48;61.29
60240;BME280;46102;39.012;-7.064;2023-04-01T17:22:52;99081.00;;;20.13;63.52
60240;BME280;46102;39.012;-7.064;2023-04-01T17:32:18;99084.88;;;19.70;63.62
60240;BME280;46102;39.012;-7.064;2023-04-01T17:39:05;99087.09;;;19.45;63.91
60240;BME280;46102;39.012;-7.064;2023-04-01T17:46:19;99092.56;;;19.22;65.51
60240;BME280;46102;39.012;-7.064;2023-04-01T17:48:32;99090.41;;;19.15;65.37
60240;BME280;46102;39.012;-7.064;2023-04-01T18:04:24;99093.13;;;18.80;67.31
60240;BME280;46102;39.012;-7.064;2023-04-01T18:06:36;99102.66;;;18.79;67.85
60240;BME280;46102;39.012;-7.064;2023-04-01T18:08:49;99099.56;;;18.68;68.30
60240;BME280;46102;39.012;-7.064;2023-04-01T18:11:25;99106.19;;;18.47;69.06
60240;BME280;46102;39.012;-7.064;2023-04-01T18:13:55;99107.44;;;18.50;69.73
60240;BME280;46102;39.012;-7.064;2023-04-01T18:18:48;99109.41;;;18.49;69.73
60240;BME280;46102;39.012;-7.064;2023-04-01T18:20:53;99116.03;;;18.45;70.20